sensor_id;sensor_type;location;lat;lon;timestamp;pressure;altitude;pressure_sealevel;temperature;humidity
33163;BME280;29282;45.656;11.302;2023-11-19T00:02:22;98958.34;;;18.24;59.97
33163;BME280;29282;45.656;11.302;2023-11-19T00:04:47;98929.63;;;18.21;59.96
33163;BME280;29282;45.656;11.302;2023-11-19T00:07:13;98937.84;;;18.21;59.95
33163;BME280;29282;45.656;11.302;2023-11-19T00:09:40;98935.59;;;18.23;60.05
33163;BME280;29282;45.656;11.302;2023-11-19T00:12:06;98930.72;;;18.20;59.98
33163;BME280;29282;45.656;11.302;2023-11-19T00:14:35;98935.41;;;18.20;60.03
33163;BME280;29282;45.656;11.302;2023-11-19T00:17:00;98951.06;;;18.19;59.95
33163;BME280;29282;45.656;11.302;2023-11-19T00:19:26;98940.09;;;18.19;60.10
33163;BME280;29282;45.656;11.302;2023-11-19T00:21:52;98929.13;;;18.19;60.22
33163;BME280;29282;45.656;11.302;2023-11-19T00:24:18;98929.13;;;18.19;60.08
33163;BME280;29282;45.656;11.302;2023-11-19T00:26:43;98953.81;;;18.19;60.14
33163;BME280;29282;45.656;11.302;2023-11-19T00:29:09;98945.41;;;18.16;60.07
33163;BME280;29282;45.656;11.302;2023-11-19T00:31:35;98934.44;;;18.16;60.44
33163;BME280;29282;45.656;11.302;2023-11-19T00:34:01;98924.78;;;18.18;60.16
33163;BME280;29282;45.656;11.302;2023-11-19T00:36:27;98929.75;;;18.16;60.24
33163;BME280;29282;45.656;11.302;2023-11-19T00:38:53;98935.25;;;18.16;60.26
33163;BME280;29282;45.656;11.302;2023-11-19T00:41:22;98947.00;;;18.17;60.24
33163;BME280;29282;45.656;11.302;2023-11-19T00:43:48;98947.53;;;18.19;60.18
33163;BME280;29282;45.656;11.302;2023-11-19T00:46:14;98936.03;;;18.17;60.33
33163;BME280;29282;45.656;11.302;2023-11-19T00:48:40;98937.97;;;18.16;60.34
33163;BME280;29282;45.656;11.302;2023-11-19T00:51:05;98939.13;;;18.15;60.03
33163;BME280;29282;45.656;11.302;2023-11-19T00:53:34;98926.50;;;18.14;60.24
33163;BME280;29282;45.656;11.302;2023-11-19T00:56:02;98933.63;;;18.15;60.23
33163;BME280;29282;45.656;11.302;2023-11-19T00:58:28;98924.09;;;18.13;60.29
33163;BME280;29282;45.656;11.302;2023-11-19T01:00:54;98912.31;;;18.12;60.16
33163;BME280;29282;45.656;11.302;2023-11-19T01:03:20;98898.09;;;18.10;60.19
33163;BME280;29282;45.656;11.302;2023-11-19T01:05:46;98924.72;;;18.10;60.42
33163;BME280;29282;45.656;11.302;2023-11-19T01:08:12;98916.00;;;18.07;60.30
33163;BME280;29282;45.656;11.302;2023-11-19T01:10:37;98903.13;;;18.08;60.24
33163;BME280;29282;45.656;11.302;2023-11-19T01:13:03;98903.44;;;18.06;60.17
33163;BME280;29282;45.656;11.302;2023-11-19T01:15:31;98903.44;;;18.06;60.26
33163;BME280;29282;45.656;11.302;2023-11-19T01:18:12;98893.25;;;18.07;60.36
33163;BME280;29282;45.656;11.302;2023-11-19T01:20:38;98886.47;;;18.04;60.36
33163;BME280;29282;45.656;11.302;2023-11-19T01:23:03;98890.03;;;18.05;60.33
33163;BME280;29282;45.656;11.302;2023-11-19T01:25:29;98901.00;;;18.05;60.39
33163;BME280;29282;45.656;11.302;2023-11-19T01:27:54;98883.25;;;18.02;60.37
33163;BME280;29282;45.656;11.302;2023-11-19T01:30:24;98866.81;;;18.02;60.32
33163;BME280;29282;45.656;11.302;2023-11-19T01:32:49;98855.03;;;18.02;60.35
33163;BME280;29282;45.656;11.302;2023-11-19T01:35:15;98867.09;;;18.01;60.45
33163;BME280;29282;45.656;11.302;2023-11-19T01:37:40;98863.25;;;18.02;60.29
33163;BME280;29282;45.656;11.302;2023-11-19T01:40:06;98882.44;;;18.02;60.36
33163;BME280;29282;45.656;11.302;2023-11-19T01:42:40;98881.16;;;17.99;60.20
33163;BME280;29282;45.656;11.302;2023-11-19T01:45:06;98877.59;;;17.99;60.53
33163;BME280;29282;45.656;11.302;2023-11-19T01:47:35;98854.53;;;18.00;60.33
33163;BME280;29282;45.656;11.302;2023-11-19T01:50:02;98857.59;;;17.98;60.33
33163;BME280;29282;45.656;11.302;2023-11-19T01:52:32;98859.50;;;17.98;60.28
33163;BME280;29282;45.656;11.302;2023-11-19T01:55:01;98865.00;;;17.98;60.39
33163;BME280;29282;45.656;11.302;2023-11-19T01:57:26;98862.25;;;17.98;60.40
33163;BME280;29282;45.656;11.302;2023-11-19T01:59:52;98853.56;;;17.96;60.49
33163;BME280;29282;45.656;11.302;2023-11-19T02:02:19;98845.34;;;17.96;60.33
33163;BME280;29282;45.656;11.302;2023-11-19T02:04:49;98851.63;;;17.96;60.42
33163;BME280;29282;45.656;11.302;2023-11-19T02:07:16;98854.38;;;17.96;60.43
33163;BME280;29282;45.656;11.302;2023-11-19T02:09:43;98849.22;;;17.95;60.49
33163;BME280;29282;45.656;11.302;2023-11-19T02:12:09;98837.75;;;17.93;60.59
33163;BME280;29282;45.656;11.302;2023-11-19T02:14:40;98834.66;;;17.94;60.44
33163;BME280;29282;45.656;11.302;2023-11-19T02:17:06;98836.94;;;17.92;60.50
33163;BME280;29282;45.656;11.302;2023-11-19T02:19:31;98835.81;;;17.93;60.50
33163;BME280;29282;45.656;11.302;2023-11-19T02:21:57;98832.25;;;17.93;60.50
33163;BME280;29282;45.656;11.302;2023-11-19T02:24:26;98827.91;;;17.92;60.38
33163;BME280;29282;45.656;11.302;2023-11-19T02:27:02;98820.50;;;17.92;60.41
33163;BME280;29282;45.656;11.302;2023-11-19T02:29:32;98822.44;;;17.92;60.68
33163;BME280;29282;45.656;11.302;2023-11-19T02:31:58;98821.28;;;17.93;60.38
33163;BME280;29282;45.656;11.302;2023-11-19T02:34:23;98817.25;;;17.90;60.44
33163;BME280;29282;45.656;11.302;2023-11-19T02:36:48;98821.94;;;17.90;60.65
33163;BME280;29282;45.656;11.302;2023-11-19T02:39:15;98808.72;;;17.92;60.53
33163;BME280;29282;45.656;11.302;2023-11-19T02:41:47;98800.81;;;17.90;60.68
33163;BME280;29282;45.656;11.302;2023-11-19T02:44:12;98796.44;;;17.89;60.74
33163;BME280;29282;45.656;11.302;2023-11-19T02:46:38;98787.09;;;17.90;60.86
33163;BME280;29282;45.656;11.302;2023-11-19T02:49:07;98782.41;;;17.91;60.79
33163;BME280;29282;45.656;11.302;2023-11-19T02:51:33;98789.03;;;17.90;60.83
33163;BME280;29282;45.656;11.302;2023-11-19T02:54:00;98796.13;;;17.91;60.71
33163;BME280;29282;45.656;11.302;2023-11-19T02:56:25;98785.16;;;17.91;60.52
33163;BME280;29282;45.656;11.302;2023-11-19T02:58:52;98772.25;;;17.91;60.87
33163;BME280;29282;45.656;11.302;2023-11-19T03:01:26;98766.31;;;17.89;60.86
33163;BME280;29282;45.656;11.302;2023-11-19T03:03:56;98774.03;;;17.87;61.05
33163;BME280;29282;45.656;11.302;2023-11-19T03:06:22;98778.69;;;17.87;61.11
33163;BME280;29282;45.656;11.302;2023-11-19T03:08:48;98786.63;;;17.88;61.01
33163;BME280;29282;45.656;11.302;2023-11-19T03:11:14;98783.38;;;17.86;60.91
33163;BME280;29282;45.656;11.302;2023-11-19T03:13:40;98783.88;;;17.88;61.01
33163;BME280;29282;45.656;11.302;2023-11-19T03:16:05;98772.41;;;17.86;60.97
33163;BME280;29282;45.656;11.302;2023-11-19T03:18:35;98783.38;;;17.86;61.02
33163;BME280;29282;45.656;11.302;2023-11-19T03:21:00;98785.31;;;17.86;60.90
33163;BME280;29282;45.656;11.302;2023-11-19T03:23:25;98790.63;;;17.82;60.97
33163;BME280;29282;45.656;11.302;2023-11-19T03:25:54;98778.53;;;17.83;60.84
33163;BME280;29282;45.656;11.302;2023-11-19T03:28:20;98775.78;;;17.83;60.99
33163;BME280;29282;45.656;11.302;2023-11-19T03:30:46;98777.72;;;17.82;60.88
33163;BME280;29282;45.656;11.302;2023-11-19T03:33:11;98758.03;;;17.80;60.93
33163;BME280;29282;45.656;11.302;2023-11-19T03:35:37;98744.34;;;17.80;60.84
33163;BME280;29282;45.656;11.302;2023-11-19T03:38:02;98745.47;;;17.79;61.13
33163;BME280;29282;45.656;11.302;2023-11-19T03:40:30;98751.47;;;17.81;60.81
33163;BME280;29282;45.656;11.302;2023-11-19T03:42:56;98753.69;;;17.79;61.04
33163;BME280;29282;45.656;11.302;2023-11-19T03:45:23;98742.75;;;17.79;60.91
33163;BME280;29282;45.656;11.302;2023-11-19T03:47:49;98748.22;;;17.79;60.86
33163;BME280;29282;45.656;11.302;2023-11-19T03:50:15;98735.66;;;17.78;61.00
33163;BME280;29282;45.656;11.302;2023-11-19T03:52:41;98734.81;;;17.78;61.07
33163;BME280;29282;45.656;11.302;2023-11-19T03:55:06;98728.53;;;17.77;61.02
33163;BME280;29282;45.656;11.302;2023-11-19T03:57:34;98726.09;;;17.76;60.96
33163;BME280;29282;45.656;11.302;2023-11-19T03:59:59;98730.47;;;17.77;60.91
33163;BME280;29282;45.656;11.302;2023-11-19T04:02:25;98729.66;;;17.76;60.88
33163;BME280;29282;45.656;11.302;2023-11-19T04:04:53;98724.50;;;17.75;61.01
33163;BME280;29282;45.656;11.302;2023-11-19T04:07:19;98737.34;;;17.74;60.90
33163;BME280;29282;45.656;11.302;2023-11-19T04:09:45;98731.88;;;17.74;61.11
33163;BME280;29282;45.656;11.302;2023-11-19T04:12:12;98721.25;;;17.73;60.83
33163;BME280;29282;45.656;11.302;2023-11-19T04:14:37;98720.44;;;17.72;60.99
33163;BME280;29282;45.656;11.302;2023-11-19T04:17:03;98731.41;;;17.72;60.96
33163;BME280;29282;45.656;11.302;2023-11-19T04:19:28;98730.28;;;17.73;60.87
33163;BME280;29282;45.656;11.302;2023-11-19T04:21:54;98727.03;;;17.71;61.05
33163;BME280;29282;45.656;11.302;2023-11-19T04:24:19;98718.34;;;17.69;60.90
33163;BME280;29282;45.656;11.302;2023-11-19T04:26:45;98727.88;;;17.72;60.79
33163;BME280;29282;45.656;11.302;2023-11-19T04:29:15;98726.22;;;17.71;61.11
33163;BME280;29282;45.656;11.302;2023-11-19T04:31:45;98719.94;;;17.70;60.97
33163;BME280;29282;45.656;11.302;2023-11-19T04:34:11;98729.78;;;17.71;61.03
33163;BME280;29282;45.656;11.302;2023-11-19T04:36:37;98730.91;;;17.70;60.97
33163;BME280;29282;45.656;11.302;2023-11-19T04:39:03;98731.25;;;17.69;60.98
33163;BME280;29282;45.656;11.302;2023-11-19T04:44:16;98724.13;;;17.68;61.11
33163;BME280;29282;45.656;11.302;2023-11-19T04:46:42;98717.38;;;17.65;61.10
33163;BME280;29282;45.656;11.302;2023-11-19T04:49:12;98712.69;;;17.66;61.12
33163;BME280;29282;45.656;11.302;2023-11-19T04:51:41;98707.22;;;17.66;60.89
33163;BME280;29282;45.656;11.302;2023-11-19T04:54:08;98703.97;;;17.64;61.08
33163;BME280;29282;45.656;11.302;2023-11-19T04:56:34;98708.66;;;17.63;61.17
33163;BME280;29282;45.656;11.302;2023-11-19T04:59:01;98708.31;;;17.65;61.09
33163;BME280;29282;45.656;11.302;2023-11-19T05:01:27;98711.41;;;17.63;61.04
33163;BME280;29282;45.656;11.302;2023-11-19T05:03:52;98707.84;;;17.63;61.06
33163;BME280;29282;45.656;11.302;2023-11-19T05:06:18;98702.38;;;17.63;61.00
33163;BME280;29282;45.656;11.302;2023-11-19T05:08:44;98694.44;;;17.61;60.82
33163;BME280;29282;45.656;11.302;2023-11-19T05:11:10;98697.69;;;17.63;61.00
33163;BME280;29282;45.656;11.302;2023-11-19T05:13:37;98697.19;;;17.61;61.04
33163;BME280;29282;45.656;11.302;2023-11-19T05:16:03;98696.38;;;17.60;60.94
33163;BME280;29282;45.656;11.302;2023-11-19T05:18:29;98699.13;;;17.60;60.98
33163;BME280;29282;45.656;11.302;2023-11-19T05:20:54;98697.19;;;17.61;60.98
33163;BME280;29282;45.656;11.302;2023-11-19T05:23:20;98699.94;;;17.61;60.97
33163;BME280;29282;45.656;11.302;2023-11-19T05:25:45;98699.47;;;17.59;61.02
33163;BME280;29282;45.656;11.302;2023-11-19T05:28:11;98695.91;;;17.58;60.90
33163;BME280;29282;45.656;11.302;2023-11-19T05:30:36;98686.06;;;17.57;61.03
33163;BME280;29282;45.656;11.302;2023-11-19T05:33:02;98685.25;;;17.57;61.15
33163;BME280;29282;45.656;11.302;2023-11-19T05:35:27;98688.00;;;17.57;61.11
33163;BME280;29282;45.656;11.302;2023-11-19T05:37:53;98689.59;;;17.58;61.16
33163;BME280;29282;45.656;11.302;2023-11-19T05:40:18;98681.72;;;17.56;61.19
33163;BME280;29282;45.656;11.302;2023-11-19T05:42:45;98682.84;;;17.55;60.98
33163;BME280;29282;45.656;11.302;2023-11-19T05:45:11;98684.78;;;17.55;61.01
33163;BME280;29282;45.656;11.302;2023-11-19T05:47:37;98675.75;;;17.54;61.04
33163;BME280;29282;45.656;11.302;2023-11-19T05:50:03;98677.69;;;17.54;61.16
33163;BME280;29282;45.656;11.302;2023-11-19T05:52:31;98685.91;;;17.54;61.02
33163;BME280;29282;45.656;11.302;2023-11-19T05:55:00;98684.28;;;17.53;60.82
33163;BME280;29282;45.656;11.302;2023-11-19T05:57:29;98674.47;;;17.52;61.15
33163;BME280;29282;45.656;11.302;2023-11-19T05:59:54;98670.59;;;17.53;60.95
33163;BME280;29282;45.656;11.302;2023-11-19T06:02:20;98677.22;;;17.52;60.84
33163;BME280;29282;45.656;11.302;2023-11-19T06:04:45;98672.84;;;17.51;61.01
33163;BME280;29282;45.656;11.302;2023-11-19T06:07:13;98665.75;;;17.50;60.85
33163;BME280;29282;45.656;11.302;2023-11-19T06:09:40;98665.75;;;17.50;61.18
33163;BME280;29282;45.656;11.302;2023-11-19T06:12:06;98666.88;;;17.49;61.02
33163;BME280;29282;45.656;11.302;2023-11-19T06:14:32;98672.03;;;17.50;61.00
33163;BME280;29282;45.656;11.302;2023-11-19T06:16:58;98661.41;;;17.49;61.15
33163;BME280;29282;45.656;11.302;2023-11-19T06:19:23;98658.66;;;17.49;60.99
33163;BME280;29282;45.656;11.302;2023-11-19T06:21:50;98668.50;;;17.50;61.13
33163;BME280;29282;45.656;11.302;2023-11-19T06:24:16;98663.34;;;17.48;61.20
33163;BME280;29282;45.656;11.302;2023-11-19T06:26:41;98673.16;;;17.49;61.12
33163;BME280;29282;45.656;11.302;2023-11-19T06:29:06;98672.03;;;17.50;61.22
33163;BME280;29282;45.656;11.302;2023-11-19T06:31:32;98680.59;;;17.49;60.93
33163;BME280;29282;45.656;11.302;2023-11-19T06:33:57;98670.72;;;17.48;61.05
33163;BME280;29282;45.656;11.302;2023-11-19T06:36:23;98671.22;;;17.50;61.02
33163;BME280;29282;45.656;11.302;2023-11-19T06:38:48;98664.16;;;17.49;60.98
33163;BME280;29282;45.656;11.302;2023-11-19T06:41:14;98654.00;;;17.49;61.17
33163;BME280;29282;45.656;11.302;2023-11-19T06:43:40;98663.00;;;17.50;61.06
33163;BME280;29282;45.656;11.302;2023-11-19T06:46:05;98659.63;;;17.53;61.07
33163;BME280;29282;45.656;11.302;2023-11-19T06:48:32;98667.53;;;17.54;61.20
33163;BME280;29282;45.656;11.302;2023-11-19T06:50:59;98666.41;;;17.55;61.31
33163;BME280;29282;45.656;11.302;2023-11-19T06:53:24;98685.59;;;17.55;62.38
33163;BME280;29282;45.656;11.302;2023-11-19T06:55:50;98686.41;;;17.56;61.35
33163;BME280;29282;45.656;11.302;2023-11-19T06:58:15;98696.22;;;17.57;61.00
33163;BME280;29282;45.656;11.302;2023-11-19T07:00:43;98702.84;;;17.56;61.24
33163;BME280;29282;45.656;11.302;2023-11-19T07:03:08;98705.25;;;17.57;61.05
33163;BME280;29282;45.656;11.302;2023-11-19T07:05:36;98714.94;;;17.55;61.08
33163;BME280;29282;45.656;11.302;2023-11-19T07:08:04;98709.94;;;17.57;61.02
33163;BME280;29282;45.656;11.302;2023-11-19T07:10:29;98709.28;;;17.60;61.20
33163;BME280;29282;45.656;11.302;2023-11-19T07:12:56;98722.34;;;17.63;60.80
33163;BME280;29282;45.656;11.302;2023-11-19T07:15:21;98717.38;;;17.65;60.71
33163;BME280;29282;45.656;11.302;2023-11-19T07:17:47;98717.38;;;17.65;60.55
33163;BME280;29282;45.656;11.302;2023-11-19T07:20:13;98721.72;;;17.66;60.60
33163;BME280;29282;45.656;11.302;2023-11-19T07:22:43;98714.31;;;17.67;60.43
33163;BME280;29282;45.656;11.302;2023-11-19T07:25:13;98714.31;;;17.67;60.54
33163;BME280;29282;45.656;11.302;2023-11-19T07:27:39;98721.72;;;17.66;60.47
33163;BME280;29282;45.656;11.302;2023-11-19T07:30:05;98712.69;;;17.66;60.49
33163;BME280;29282;45.656;11.302;2023-11-19T07:32:32;98714.63;;;17.65;60.42
33163;BME280;29282;45.656;11.302;2023-11-19T07:34:58;98713.81;;;17.65;60.36
33163;BME280;29282;45.656;11.302;2023-11-19T07:37:24;98705.59;;;17.65;60.57
33163;BME280;29282;45.656;11.302;2023-11-19T07:39:49;98698.19;;;17.65;60.49
33163;BME280;29282;45.656;11.302;2023-11-19T07:42:14;98709.78;;;17.71;60.32
33163;BME280;29282;45.656;11.302;2023-11-19T07:44:40;98705.81;;;17.77;60.16
33163;BME280;29282;45.656;11.302;2023-11-19T07:47:06;98707.44;;;17.87;60.08
33163;BME280;29282;45.656;11.302;2023-11-19T07:49:32;98705.03;;;17.94;60.79
33163;BME280;29282;45.656;11.302;2023-11-19T07:51:58;98707.44;;;18.04;59.99
33163;BME280;29282;45.656;11.302;2023-11-19T07:54:24;98731.34;;;18.12;60.02
33163;BME280;29282;45.656;11.302;2023-11-19T07:56:49;98727.31;;;18.18;59.81
33163;BME280;29282;45.656;11.302;2023-11-19T07:59:15;98729.09;;;18.31;60.69
33163;BME280;29282;45.656;11.302;2023-11-19T08:01:41;98730.84;;;18.36;60.04
33163;BME280;29282;45.656;11.302;2023-11-19T08:04:06;98739.56;;;18.38;59.57
33163;BME280;29282;45.656;11.302;2023-11-19T08:06:32;98731.34;;;18.38;59.66
33163;BME280;29282;45.656;11.302;2023-11-19T08:08:57;98740.06;;;18.49;59.40
33163;BME280;29282;45.656;11.302;2023-11-19T08:11:23;98729.84;;;18.67;59.18
33163;BME280;29282;45.656;11.302;2023-11-19T08:13:49;98734.53;;;18.66;59.26
33163;BME280;29282;45.656;11.302;2023-11-19T08:16:15;98725.00;;;18.64;59.04
33163;BME280;29282;45.656;11.302;2023-11-19T08:18:45;98724.22;;;18.63;58.69
33163;BME280;29282;45.656;11.302;2023-11-19T08:21:10;98734.06;;;18.64;58.46
33163;BME280;29282;45.656;11.302;2023-11-19T08:23:36;98738.56;;;18.60;58.60
33163;BME280;29282;45.656;11.302;2023-11-19T08:26:03;98737.94;;;18.63;58.59
33163;BME280;29282;45.656;11.302;2023-11-19T08:28:30;98742.31;;;18.64;58.49
33163;BME280;29282;45.656;11.302;2023-11-19T08:30:56;98741.31;;;18.69;58.30
33163;BME280;29282;45.656;11.302;2023-11-19T08:33:22;98741.63;;;18.67;58.31
33163;BME280;29282;45.656;11.302;2023-11-19T08:35:48;98725.53;;;18.74;58.09
33163;BME280;29282;45.656;11.302;2023-11-19T08:38:16;98726.31;;;18.75;58.11
33163;BME280;29282;45.656;11.302;2023-11-19T08:40:42;98728.38;;;18.87;58.05
33163;BME280;29282;45.656;11.302;2023-11-19T08:43:07;98730.97;;;18.92;57.78
33163;BME280;29282;45.656;11.302;2023-11-19T08:45:32;98731.94;;;18.96;57.82
33163;BME280;29282;45.656;11.302;2023-11-19T08:48:01;98729.03;;;18.92;58.09
33163;BME280;29282;45.656;11.302;2023-11-19T08:50:27;98721.78;;;18.88;58.24
33163;BME280;29282;45.656;11.302;2023-11-19T08:52:52;98722.41;;;18.93;58.28
33163;BME280;29282;45.656;11.302;2023-11-19T08:55:18;98718.84;;;18.93;58.30
33163;BME280;29282;45.656;11.302;2023-11-19T08:57:43;98718.38;;;18.91;58.84
33163;BME280;29282;45.656;11.302;2023-11-19T09:00:09;98724.97;;;18.98;58.49
33163;BME280;29282;45.656;11.302;2023-11-19T09:02:35;98722.69;;;19.00;58.66
33163;BME280;29282;45.656;11.302;2023-11-19T09:05:02;98724.63;;;19.00;58.62
33163;BME280;29282;45.656;11.302;2023-11-19T09:07:28;98731.28;;;18.99;58.84
33163;BME280;29282;45.656;11.302;2023-11-19T09:09:53;98737.25;;;19.01;58.89
33163;BME280;29282;45.656;11.302;2023-11-19T09:12:19;98732.06;;;19.08;58.68
33163;BME280;29282;45.656;11.302;2023-11-19T09:14:44;98736.25;;;19.06;58.90
33163;BME280;29282;45.656;11.302;2023-11-19T09:17:11;98724.94;;;19.07;58.87
33163;BME280;29282;45.656;11.302;2023-11-19T09:19:36;98717.03;;;19.06;58.89
33163;BME280;29282;45.656;11.302;2023-11-19T09:22:02;98721.88;;;19.09;58.86
33163;BME280;29282;45.656;11.302;2023-11-19T09:24:28;98723.81;;;19.08;58.92
33163;BME280;29282;45.656;11.302;2023-11-19T09:26:53;98726.22;;;19.10;59.03
33163;BME280;29282;45.656;11.302;2023-11-19T09:29:20;98730.75;;;19.06;59.36
33163;BME280;29282;45.656;11.302;2023-11-19T09:31:46;98726.38;;;19.13;58.96
33163;BME280;29282;45.656;11.302;2023-11-19T09:34:12;98712.63;;;19.13;58.98
33163;BME280;29282;45.656;11.302;2023-11-19T09:36:37;98729.13;;;19.13;58.86
33163;BME280;29282;45.656;11.302;2023-11-19T09:39:03;98718.13;;;19.13;58.98
33163;BME280;29282;45.656;11.302;2023-11-19T09:41:30;98703.59;;;19.13;59.05
33163;BME280;29282;45.656;11.302;2023-11-19T09:43:56;98694.22;;;19.14;58.79
33163;BME280;29282;45.656;11.302;2023-11-19T09:46:22;98693.41;;;19.13;58.78
33163;BME280;29282;45.656;11.302;2023-11-19T09:48:52;98687.91;;;19.13;58.88
33163;BME280;29282;45.656;11.302;2023-11-19T09:51:23;98681.63;;;19.13;59.08
33163;BME280;29282;45.656;11.302;2023-11-19T09:53:49;98690.00;;;19.16;59.27
33163;BME280;29282;45.656;11.302;2023-11-19T09:56:15;98678.38;;;19.19;58.82
33163;BME280;29282;45.656;11.302;2023-11-19T09:58:42;98673.53;;;19.16;59.03
33163;BME280;29282;45.656;11.302;2023-11-19T10:01:07;98665.94;;;19.13;59.54
33163;BME280;29282;45.656;11.302;2023-11-19T10:03:36;98661.13;;;19.10;59.05
33163;BME280;29282;45.656;11.302;2023-11-19T10:06:11;98676.00;;;19.09;58.99
33163;BME280;29282;45.656;11.302;2023-11-19T10:08:38;98669.34;;;19.10;59.10
33163;BME280;29282;45.656;11.302;2023-11-19T10:11:07;98658.84;;;19.12;58.88
33163;BME280;29282;45.656;11.302;2023-11-19T10:13:35;98659.66;;;19.13;59.01
33163;BME280;29282;45.656;11.302;2023-11-19T10:16:12;98656.91;;;19.13;59.08
33163;BME280;29282;45.656;11.302;2023-11-19T10:18:49;98640.13;;;19.14;59.11
33163;BME280;29282;45.656;11.302;2023-11-19T10:21:18;98631.66;;;19.19;59.15
33163;BME280;29282;45.656;11.302;2023-11-19T10:23:51;98635.22;;;19.20;59.19
33163;BME280;29282;45.656;11.302;2023-11-19T10:26:18;98626.00;;;19.24;58.88
33163;BME280;29282;45.656;11.302;2023-11-19T10:28:46;98614.22;;;19.24;58.76
33163;BME280;29282;45.656;11.302;2023-11-19T10:31:13;98612.59;;;19.23;59.22
33163;BME280;29282;45.656;11.302;2023-11-19T10:33:39;98600.47;;;19.24;59.23
33163;BME280;29282;45.656;11.302;2023-11-19T10:36:07;98612.25;;;19.24;58.93
33163;BME280;29282;45.656;11.302;2023-11-19T10:38:33;98615.81;;;19.25;59.02
33163;BME280;29282;45.656;11.302;2023-11-19T10:40:59;98619.38;;;19.25;58.73
33163;BME280;29282;45.656;11.302;2023-11-19T10:43:24;98602.59;;;19.18;59.26
33163;BME280;29282;45.656;11.302;2023-11-19T10:45:51;98595.78;;;19.24;59.32
33163;BME280;29282;45.656;11.302;2023-11-19T10:48:17;98600.63;;;19.28;59.31
33163;BME280;29282;45.656;11.302;2023-11-19T10:50:44;98601.28;;;19.24;59.24
33163;BME280;29282;45.656;11.302;2023-11-19T10:53:11;98594.63;;;19.25;59.36
33163;BME280;29282;45.656;11.302;2023-11-19T10:55:47;98591.28;;;19.20;59.60
33163;BME280;29282;45.656;11.302;2023-11-19T10:58:15;98586.25;;;19.22;59.47
33163;BME280;29282;45.656;11.302;2023-11-19T11:03:21;98589.00;;;19.22;59.51
33163;BME280;29282;45.656;11.302;2023-11-19T11:05:50;98590.47;;;19.19;59.65
33163;BME280;29282;45.656;11.302;2023-11-19T11:08:17;98585.78;;;19.20;59.63
33163;BME280;29282;45.656;11.302;2023-11-19T11:10:44;98570.97;;;19.12;59.67
33163;BME280;29282;45.656;11.302;2023-11-19T11:13:11;98569.22;;;19.08;59.65
33163;BME280;29282;45.656;11.302;2023-11-19T11:15:38;98567.75;;;19.10;58.44
33163;BME280;29282;45.656;11.302;2023-11-19T11:18:06;98565.97;;;19.14;57.79
33163;BME280;29282;45.656;11.302;2023-11-19T11:20:34;98555.44;;;19.16;57.37
33163;BME280;29282;45.656;11.302;2023-11-19T11:23:18;98553.69;;;19.12;57.85
33163;BME280;29282;45.656;11.302;2023-11-19T11:28:59;98539.59;;;19.13;57.63
33163;BME280;29282;45.656;11.302;2023-11-19T11:37:45;98556.75;;;19.10;57.60
33163;BME280;29282;45.656;11.302;2023-11-19T11:40:17;98566.13;;;19.09;57.58
33163;BME280;29282;45.656;11.302;2023-11-19T11:42:46;98562.25;;;19.10;57.64
33163;BME280;29282;45.656;11.302;2023-11-19T11:45:13;98563.72;;;19.08;57.69
33163;BME280;29282;45.656;11.302;2023-11-19T11:50:08;98568.41;;;19.07;57.46
33163;BME280;29282;45.656;11.302;2023-11-19T11:56:11;98565.19;;;19.05;57.60
33163;BME280;29282;45.656;11.302;2023-11-19T11:58:12;98546.44;;;19.07;57.69
33163;BME280;29282;45.656;11.302;2023-11-19T12:00:40;98556.28;;;19.08;57.62
33163;BME280;29282;45.656;11.302;2023-11-19T12:03:07;98553.56;;;19.08;57.56
33163;BME280;29282;45.656;11.302;2023-11-19T12:05:33;98544.97;;;19.10;57.67
33163;BME280;29282;45.656;11.302;2023-11-19T12:08:04;98540.41;;;19.14;57.33
33163;BME280;29282;45.656;11.302;2023-11-19T12:10:37;98546.25;;;19.12;57.39
33163;BME280;29282;45.656;11.302;2023-11-19T12:13:09;98549.34;;;19.11;57.84
33163;BME280;29282;45.656;11.302;2023-11-19T12:18:29;98548.19;;;19.12;57.67
33163;BME280;29282;45.656;11.302;2023-11-19T12:20:56;98540.75;;;19.12;57.50
33163;BME280;29282;45.656;11.302;2023-11-19T12:23:25;98538.00;;;19.12;57.32
33163;BME280;29282;45.656;11.302;2023-11-19T12:25:51;98547.84;;;19.13;57.36
33163;BME280;29282;45.656;11.302;2023-11-19T12:28:17;98539.59;;;19.13;57.42
33163;BME280;29282;45.656;11.302;2023-11-19T12:30:44;98533.66;;;19.11;57.55
33163;BME280;29282;45.656;11.302;2023-11-19T12:33:11;98533.66;;;19.11;57.52
33163;BME280;29282;45.656;11.302;2023-11-19T12:35:44;98532.53;;;19.12;57.40
33163;BME280;29282;45.656;11.302;2023-11-19T12:38:23;98538.00;;;19.12;57.52
33163;BME280;29282;45.656;11.302;2023-11-19T12:41:05;98522.31;;;19.13;57.47
33163;BME280;29282;45.656;11.302;2023-11-19T12:43:31;98525.88;;;19.13;57.45
33163;BME280;29282;45.656;11.302;2023-11-19T12:45:59;98523.47;;;19.12;57.71
33163;BME280;29282;45.656;11.302;2023-11-19T12:48:24;98532.53;;;19.12;57.42
33163;BME280;29282;45.656;11.302;2023-11-19T12:50:54;98522.00;;;19.14;57.41
33163;BME280;29282;45.656;11.302;2023-11-19T12:53:22;98519.28;;;19.14;57.18
33163;BME280;29282;45.656;11.302;2023-11-19T12:55:48;98519.28;;;19.14;57.26
33163;BME280;29282;45.656;11.302;2023-11-19T12:58:33;98511.03;;;19.14;57.41
33163;BME280;29282;45.656;11.302;2023-11-19T13:01:01;98493.72;;;19.14;57.29
33163;BME280;29282;45.656;11.302;2023-11-19T13:03:34;98500.03;;;19.14;57.44
33163;BME280;29282;45.656;11.302;2023-11-19T13:06:07;98491.31;;;19.12;57.55
33163;BME280;29282;45.656;11.302;2023-11-19T13:08:44;98490.97;;;19.14;57.41
33163;BME280;29282;45.656;11.302;2023-11-19T13:11:11;98497.75;;;19.16;57.25
33163;BME280;29282;45.656;11.302;2023-11-19T13:16:24;98495.66;;;19.13;57.42